Hollis, Illinois
Current Conditions -  °F | °C
As of 1:54 PM on Thursday 23 Oct 2014 (Local Time) from KPIA Reporting Station
Scattered Clouds Scattered Clouds  
Wind Chill: 15°   Ceiling: Unl
Heat Index: 15°   Visibility: 10mi
Dew Point:   Wind: 12mph
Humidity: 58%   Direction: 180°S
Pressure: 30.12"   Gusts: NA
Location:  40.6465°N, 89.6859°W
Report Text: KPIA 231854Z 18010KT 10SM SCT100 15/07 A3012 RMK AO2 SLP200 T01500067
Loading
Personal Weather Stations






























Interactive Weather Map
Tropical Storm Tracking
New forecast layout! Learn more

10-Day Weather Forecast

Advertisements
Track Severe Weather on mobile